createdAt,value
2022-12-27T00:00:12.103Z,19.14
2022-12-27T00:02:38.669Z,19.17
2022-12-27T00:05:05.087Z,19.16
2022-12-27T00:07:31.509Z,19.21
2022-12-27T00:09:57.867Z,19.14
2022-12-27T00:12:24.273Z,19.19
2022-12-27T00:14:51.499Z,19.16
2022-12-27T00:17:18.713Z,19.16
2022-12-27T00:19:45.931Z,19.17
2022-12-27T00:22:12.268Z,19.16
2022-12-27T00:24:38.736Z,19.17
2022-12-27T00:27:05.096Z,19.16
2022-12-27T00:29:32.314Z,19.19
2022-12-27T00:31:58.781Z,19.12
2022-12-27T00:34:25.160Z,19.17
2022-12-27T00:36:51.557Z,19.17
2022-12-27T00:39:18.757Z,19.20
2022-12-27T00:41:45.163Z,19.14
2022-12-27T00:44:12.358Z,19.16
2022-12-27T00:46:39.572Z,19.16
2022-12-27T00:49:06.208Z,19.15
2022-12-27T00:51:32.577Z,19.16
2022-12-27T00:53:58.918Z,19.13
2022-12-27T00:56:25.264Z,19.14
2022-12-27T01:01:36.354Z,19.11
2022-12-27T01:04:02.861Z,19.18
2022-12-27T01:06:29.337Z,19.14
2022-12-27T01:08:55.688Z,19.20
2022-12-27T01:11:22.048Z,19.26
2022-12-27T01:16:43.248Z,19.26
2022-12-27T01:19:10.475Z,19.26
2022-12-27T01:21:36.875Z,19.25
2022-12-27T01:24:03.276Z,19.30
2022-12-27T01:26:29.632Z,19.24
2022-12-27T01:31:50.018Z,19.28
2022-12-27T01:34:16.395Z,19.24
2022-12-27T01:36:43.577Z,19.24
2022-12-27T01:39:09.941Z,19.22
2022-12-27T01:41:36.289Z,19.20
2022-12-27T01:46:56.048Z,19.19
2022-12-27T01:49:22.453Z,19.21
2022-12-27T01:51:48.800Z,19.20
2022-12-27T01:54:15.139Z,19.17
2022-12-27T01:56:41.470Z,19.19
2022-12-27T02:01:52.084Z,19.20
2022-12-27T02:04:18.496Z,19.17
2022-12-27T02:06:44.817Z,19.19
2022-12-27T02:09:11.182Z,19.15
2022-12-27T02:11:37.524Z,19.15
2022-12-27T02:16:57.373Z,19.12
2022-12-27T02:19:23.772Z,19.17
2022-12-27T02:21:50.100Z,19.20
2022-12-27T02:24:17.398Z,19.20
2022-12-27T02:26:44.224Z,19.17
2022-12-27T02:31:54.619Z,19.16
2022-12-27T02:34:20.968Z,19.16
2022-12-27T02:36:47.277Z,19.17
2022-12-27T02:39:13.634Z,19.16
2022-12-27T02:41:39.947Z,19.16
2022-12-27T02:46:50.510Z,19.17
2022-12-27T02:49:16.890Z,19.16
2022-12-27T02:51:43.314Z,19.17
2022-12-27T02:54:09.656Z,19.20
2022-12-27T02:56:36.001Z,19.18
2022-12-27T03:01:56.238Z,19.22
2022-12-27T03:04:22.656Z,19.19
2022-12-27T03:06:49.010Z,19.16
2022-12-27T03:09:15.359Z,19.22
2022-12-27T03:11:41.684Z,19.19
2022-12-27T03:16:52.024Z,19.21
2022-12-27T03:19:18.354Z,19.17
2022-12-27T03:21:44.704Z,19.19
2022-12-27T03:24:11.029Z,19.18
2022-12-27T03:26:37.348Z,19.20
2022-12-27T03:29:03.754Z,19.12
2022-12-27T03:31:30.084Z,19.13
2022-12-27T03:33:56.450Z,19.11
2022-12-27T03:36:22.792Z,19.09
2022-12-27T03:38:49.147Z,19.09
2022-12-27T03:41:15.508Z,19.07
2022-12-27T03:43:41.850Z,19.05
2022-12-27T03:46:08.198Z,19.06
2022-12-27T03:48:34.587Z,19.03
2022-12-27T03:51:00.951Z,19.05
2022-12-27T03:53:30.060Z,19.03
2022-12-27T03:55:56.456Z,19.08
2022-12-27T03:58:22.784Z,19.05
2022-12-27T04:00:49.136Z,19.03
2022-12-27T04:03:16.359Z,18.97
2022-12-27T04:05:42.727Z,18.95
2022-12-27T04:08:09.054Z,18.95
2022-12-27T04:10:35.340Z,18.98
2022-12-27T04:13:01.624Z,18.96
2022-12-27T04:15:27.955Z,18.94
2022-12-27T04:17:54.324Z,18.98
2022-12-27T04:20:20.648Z,18.86
2022-12-27T04:22:49.797Z,18.92
2022-12-27T04:25:16.107Z,18.90
2022-12-27T04:27:42.420Z,19.00
2022-12-27T04:30:08.728Z,18.99
2022-12-27T04:32:37.853Z,18.90
2022-12-27T04:35:04.161Z,18.90
2022-12-27T04:37:33.255Z,18.89
2022-12-27T04:39:59.559Z,18.91
2022-12-27T04:42:28.656Z,18.93
2022-12-27T04:44:57.769Z,18.92
2022-12-27T04:50:07.709Z,18.98
2022-12-27T04:52:36.798Z,18.93
2022-12-27T04:55:03.195Z,18.96
2022-12-27T04:57:29.498Z,18.96
2022-12-27T04:59:58.600Z,18.92
2022-12-27T05:05:21.462Z,18.88
2022-12-27T05:07:50.618Z,18.86
2022-12-27T05:10:16.935Z,18.88
2022-12-27T05:12:43.238Z,18.86
2022-12-27T05:15:09.594Z,18.86
2022-12-27T05:20:19.938Z,18.89
2022-12-27T05:22:46.216Z,18.88
2022-12-27T05:25:12.543Z,18.83
2022-12-27T05:27:38.855Z,18.82
2022-12-27T05:30:05.194Z,18.54
2022-12-27T05:35:30.878Z,18.88
2022-12-27T05:37:57.245Z,19.05
2022-12-27T05:40:23.544Z,19.05
2022-12-27T05:42:49.819Z,19.01
2022-12-27T05:45:16.159Z,18.93
2022-12-27T05:50:29.015Z,19.07
2022-12-27T05:52:58.131Z,19.07
2022-12-27T05:55:24.475Z,19.06
2022-12-27T05:57:50.798Z,19.07
2022-12-27T06:00:17.136Z,19.04
2022-12-27T06:05:40.055Z,18.97
2022-12-27T06:08:06.434Z,18.99
2022-12-27T06:10:32.919Z,18.98
2022-12-27T06:13:02.333Z,18.96
2022-12-27T06:15:28.677Z,18.93
2022-12-27T06:20:38.704Z,18.61
2022-12-27T06:23:05.079Z,18.36
2022-12-27T06:25:31.688Z,18.28
2022-12-27T06:27:59.194Z,18.18
2022-12-27T06:30:27.088Z,18.14
2022-12-27T06:35:42.565Z,18.00
2022-12-27T06:38:09.015Z,18.02
2022-12-27T06:40:35.472Z,18.06
2022-12-27T06:43:01.946Z,17.95
2022-12-27T06:45:28.661Z,17.95
2022-12-27T06:50:48.971Z,17.99
2022-12-27T06:53:15.517Z,18.13
2022-12-27T06:55:42.743Z,17.95
2022-12-27T06:58:09.964Z,17.71
2022-12-27T07:00:36.442Z,17.53
2022-12-27T07:05:46.661Z,17.44
2022-12-27T07:08:13.896Z,17.44
2022-12-27T07:10:40.253Z,17.36
2022-12-27T07:13:06.663Z,17.34
2022-12-27T07:15:33.007Z,17.37
2022-12-27T07:20:53.275Z,17.57
2022-12-27T07:23:19.679Z,17.78
2022-12-27T07:25:46.051Z,17.74
2022-12-27T07:28:12.422Z,17.49
2022-12-27T07:30:38.781Z,17.32
2022-12-27T07:36:00.073Z,17.07
2022-12-27T07:38:26.526Z,17.14
2022-12-27T07:40:52.859Z,17.48
2022-12-27T07:43:20.075Z,17.83
2022-12-27T07:45:46.420Z,18.16
2022-12-27T07:50:57.709Z,18.33
2022-12-27T07:53:24.225Z,17.68
2022-12-27T07:55:50.603Z,17.42
2022-12-27T07:58:16.937Z,17.20
2022-12-27T08:00:43.335Z,17.46
2022-12-27T08:03:09.707Z,17.49
2022-12-27T08:05:36.083Z,17.63
2022-12-27T08:08:02.443Z,17.94
2022-12-27T08:10:28.836Z,18.24
2022-12-27T08:12:55.252Z,18.01
2022-12-27T08:15:21.581Z,17.34
2022-12-27T08:17:48.095Z,17.25
2022-12-27T08:20:15.426Z,17.19
2022-12-27T08:22:41.852Z,17.17
2022-12-27T08:25:09.095Z,16.96
2022-12-27T08:27:38.276Z,17.01
2022-12-27T08:30:05.517Z,16.84
2022-12-27T08:32:31.928Z,16.89
2022-12-27T08:35:12.083Z,16.89
2022-12-27T08:37:44.681Z,16.88
2022-12-27T08:40:11.047Z,16.86
2022-12-27T08:42:37.422Z,16.93
2022-12-27T08:45:03.794Z,16.83
2022-12-27T08:47:30.137Z,16.92
2022-12-27T08:49:56.486Z,16.91
2022-12-27T08:52:22.809Z,16.86
2022-12-27T08:54:49.127Z,16.89
2022-12-27T08:57:15.481Z,16.92
2022-12-27T08:59:41.813Z,16.90
2022-12-27T09:02:08.338Z,16.96
2022-12-27T09:04:34.736Z,16.88
2022-12-27T09:07:01.093Z,16.91
2022-12-27T09:09:27.394Z,16.88
2022-12-27T09:11:53.861Z,16.89
2022-12-27T09:14:20.222Z,16.94
2022-12-27T09:16:46.569Z,16.92
2022-12-27T09:19:13.797Z,16.82
2022-12-27T09:24:24.251Z,17.13
2022-12-27T09:26:50.621Z,16.98
2022-12-27T09:29:16.967Z,17.02
2022-12-27T09:31:43.345Z,16.99
2022-12-27T09:34:10.603Z,17.15
2022-12-27T09:39:33.100Z,17.57
2022-12-27T09:44:46.791Z,17.32
2022-12-27T09:47:15.187Z,17.06
2022-12-27T09:49:41.648Z,17.08
2022-12-27T09:54:59.308Z,17.00
2022-12-27T09:57:29.013Z,17.00
2022-12-27T09:59:55.396Z,17.01
2022-12-27T10:02:21.888Z,16.96
2022-12-27T10:05:19.834Z,17.00
2022-12-27T10:10:18.979Z,16.91
2022-12-27T10:12:45.352Z,16.95
2022-12-27T10:15:11.704Z,17.00
2022-12-27T10:17:40.039Z,16.97
2022-12-27T10:20:09.239Z,16.99
2022-12-27T10:25:29.707Z,17.05
2022-12-27T10:27:56.133Z,16.98
2022-12-27T10:30:22.487Z,17.04
2022-12-27T10:32:48.878Z,17.02
2022-12-27T10:35:15.314Z,16.96
2022-12-27T10:40:35.669Z,17.06
2022-12-27T10:43:02.053Z,17.03
2022-12-27T10:45:28.414Z,17.08
2022-12-27T10:47:55.697Z,17.05
2022-12-27T10:50:22.103Z,16.99
2022-12-27T10:55:35.263Z,17.12
2022-12-27T10:58:01.569Z,17.06
2022-12-27T11:00:27.998Z,17.03
2022-12-27T11:02:54.470Z,17.13
2022-12-27T11:05:20.875Z,17.09
2022-12-27T11:10:31.046Z,17.10
2022-12-27T11:12:57.417Z,17.02
2022-12-27T11:15:23.818Z,17.04
2022-12-27T11:17:50.160Z,17.06
2022-12-27T11:20:16.582Z,17.05
2022-12-27T11:25:26.955Z,16.96
2022-12-27T11:27:53.802Z,16.96
2022-12-27T11:30:20.170Z,17.20
2022-12-27T11:32:46.589Z,17.52
2022-12-27T11:35:13.899Z,17.17
2022-12-27T11:40:24.445Z,17.06
2022-12-27T11:42:50.781Z,17.03
2022-12-27T11:45:18.000Z,17.00
2022-12-27T11:47:44.399Z,16.80
2022-12-27T11:50:10.744Z,16.84
2022-12-27T11:55:30.930Z,16.85
2022-12-27T11:57:57.298Z,16.90
2022-12-27T12:00:23.668Z,16.83
2022-12-27T12:02:50.261Z,16.81
2022-12-27T12:05:16.712Z,16.79
2022-12-27T12:10:37.259Z,16.78
2022-12-27T12:13:03.796Z,16.77
2022-12-27T12:15:30.139Z,16.77
2022-12-27T12:17:56.511Z,16.75
2022-12-27T12:20:22.871Z,16.64
2022-12-27T12:25:33.072Z,16.74
2022-12-27T12:27:59.414Z,17.09
2022-12-27T12:30:27.607Z,17.48
2022-12-27T12:32:54.245Z,17.55
2022-12-27T12:35:21.463Z,17.58
2022-12-27T12:40:41.523Z,17.69
2022-12-27T12:43:07.906Z,17.76
2022-12-27T12:45:34.343Z,17.80
2022-12-27T12:48:00.763Z,17.80
2022-12-27T12:50:27.159Z,17.75
2022-12-27T12:52:54.414Z,17.83
2022-12-27T12:55:20.920Z,17.79
2022-12-27T12:57:47.377Z,17.82
2022-12-27T13:00:13.888Z,17.85
2022-12-27T13:02:41.386Z,17.82
2022-12-27T13:05:10.696Z,17.82
2022-12-27T13:07:39.743Z,17.79
2022-12-27T13:10:07.166Z,17.82
2022-12-27T13:12:33.563Z,17.85
2022-12-27T13:15:00.076Z,17.81
2022-12-27T13:17:26.545Z,17.88
2022-12-27T13:19:52.951Z,17.86
2022-12-27T13:22:19.468Z,17.83
2022-12-27T13:24:45.908Z,17.85
2022-12-27T13:27:12.347Z,17.90
2022-12-27T13:29:38.730Z,17.90
2022-12-27T13:32:05.165Z,17.92
2022-12-27T13:34:31.538Z,17.88
2022-12-27T13:36:58.708Z,17.89
2022-12-27T13:39:25.059Z,17.92
2022-12-27T13:41:51.389Z,17.88
2022-12-27T13:44:18.905Z,17.93
2022-12-27T13:46:45.271Z,17.89
2022-12-27T13:49:11.777Z,17.88
2022-12-27T13:51:38.124Z,17.96
2022-12-27T13:54:04.507Z,17.85
2022-12-27T13:59:18.093Z,17.82
2022-12-27T14:01:44.529Z,17.83
2022-12-27T14:04:10.952Z,17.85
2022-12-27T14:06:37.451Z,17.86
2022-12-27T14:09:03.815Z,17.87
2022-12-27T14:11:30.188Z,17.83
2022-12-27T14:13:56.586Z,17.86
2022-12-27T14:16:22.979Z,17.88
2022-12-27T14:18:49.489Z,17.88
2022-12-27T14:21:16.722Z,17.85
2022-12-27T14:23:43.945Z,17.89
2022-12-27T14:29:05.051Z,17.88
2022-12-27T14:31:32.431Z,17.89
2022-12-27T14:33:59.175Z,17.88
2022-12-27T14:36:25.715Z,17.89
2022-12-27T14:38:52.110Z,17.88
2022-12-27T14:44:02.692Z,17.89
2022-12-27T14:46:29.191Z,17.92
2022-12-27T14:48:55.686Z,17.90
2022-12-27T14:54:08.458Z,17.89
2022-12-27T14:59:18.716Z,17.91
2022-12-27T15:01:46.289Z,17.92
2022-12-27T15:04:13.669Z,17.92
2022-12-27T15:06:42.019Z,17.94
2022-12-27T15:09:08.565Z,17.94
2022-12-27T15:14:19.995Z,17.94
2022-12-27T15:16:46.412Z,17.94
2022-12-27T15:19:12.790Z,17.92
2022-12-27T15:21:41.814Z,17.95
2022-12-27T15:24:09.284Z,17.93
2022-12-27T15:29:20.795Z,17.95
2022-12-27T15:31:47.219Z,17.96
2022-12-27T15:34:14.485Z,17.96
2022-12-27T15:36:40.850Z,17.95
2022-12-27T15:39:07.260Z,17.96
2022-12-27T15:44:27.758Z,17.96
2022-12-27T15:46:55.045Z,17.95
2022-12-27T15:49:22.305Z,17.96
2022-12-27T15:51:48.813Z,17.95
2022-12-27T15:54:15.165Z,17.94
2022-12-27T15:59:25.633Z,17.97
2022-12-27T16:01:52.938Z,17.96
2022-12-27T16:04:19.469Z,17.98
2022-12-27T16:06:45.865Z,17.96
2022-12-27T16:09:13.285Z,17.97
2022-12-27T16:14:23.691Z,17.97
2022-12-27T16:16:50.057Z,17.97
2022-12-27T16:19:16.411Z,17.72
2022-12-27T16:21:43.687Z,17.48
2022-12-27T16:24:12.887Z,17.36
2022-12-27T16:29:33.499Z,17.22
2022-12-27T16:31:59.973Z,17.06
2022-12-27T16:34:27.220Z,17.04
2022-12-27T16:36:54.451Z,17.08
2022-12-27T16:39:20.953Z,17.03
2022-12-27T16:44:41.907Z,16.94
2022-12-27T16:47:08.484Z,17.04
2022-12-27T16:49:35.883Z,17.09
2022-12-27T16:52:03.303Z,17.01
2022-12-27T16:54:30.733Z,17.09
2022-12-27T16:59:43.307Z,17.09
2022-12-27T17:02:09.849Z,17.00
2022-12-27T17:04:37.331Z,17.06
2022-12-27T17:07:03.802Z,16.98
2022-12-27T17:09:33.918Z,17.05
2022-12-27T17:14:45.565Z,17.03
2022-12-27T17:17:13.882Z,17.03
2022-12-27T17:19:40.395Z,17.04
2022-12-27T17:22:07.728Z,17.03
2022-12-27T17:24:34.287Z,17.00
2022-12-27T17:27:01.791Z,16.99
2022-12-27T17:29:29.987Z,17.05
2022-12-27T17:31:56.642Z,17.01
2022-12-27T17:34:24.141Z,16.98
2022-12-27T17:36:51.520Z,17.00
2022-12-27T17:39:18.038Z,16.98
2022-12-27T17:41:44.891Z,17.01
2022-12-27T17:44:12.163Z,17.07
2022-12-27T17:46:38.823Z,17.45
2022-12-27T17:49:05.237Z,17.63
2022-12-27T17:51:31.624Z,17.81
2022-12-27T17:54:00.809Z,17.98
2022-12-27T17:56:28.057Z,18.00
2022-12-27T17:58:59.705Z,18.06
2022-12-27T18:01:26.408Z,18.09
2022-12-27T18:03:53.035Z,18.08
2022-12-27T18:06:19.521Z,18.20
2022-12-27T18:08:45.967Z,18.18
2022-12-27T18:11:13.198Z,18.21
2022-12-27T18:13:40.464Z,18.23
2022-12-27T18:16:06.895Z,18.28
2022-12-27T18:18:33.343Z,18.23
2022-12-27T18:20:59.846Z,18.29
2022-12-27T18:23:27.127Z,18.42
2022-12-27T18:25:53.499Z,18.35
2022-12-27T18:28:20.716Z,18.40
2022-12-27T18:30:47.104Z,18.46
2022-12-27T18:33:13.500Z,18.36
2022-12-27T18:35:41.280Z,18.35
2022-12-27T18:38:07.639Z,18.40
2022-12-27T18:40:33.991Z,18.44
2022-12-27T18:43:00.372Z,18.40
2022-12-27T18:48:20.429Z,18.45
2022-12-27T18:50:47.145Z,18.46
2022-12-27T18:53:13.517Z,18.44
2022-12-27T18:55:39.918Z,18.49
2022-12-27T18:58:06.274Z,18.42
2022-12-27T19:03:26.574Z,18.54
2022-12-27T19:05:52.979Z,18.47
2022-12-27T19:08:19.339Z,18.42
2022-12-27T19:10:45.858Z,18.46
2022-12-27T19:13:12.193Z,18.45
2022-12-27T19:18:22.283Z,18.60
2022-12-27T19:20:48.644Z,18.62
2022-12-27T19:23:15.875Z,18.57
2022-12-27T19:25:42.238Z,18.69
2022-12-27T19:28:09.568Z,18.62
2022-12-27T19:33:19.787Z,18.68
2022-12-27T19:35:46.268Z,18.64
2022-12-27T19:38:13.520Z,18.75
2022-12-27T19:40:39.920Z,18.89
2022-12-27T19:43:09.103Z,18.72
2022-12-27T19:48:23.062Z,18.69
2022-12-27T19:50:49.440Z,18.83
2022-12-27T19:53:16.726Z,18.76
2022-12-27T19:55:43.077Z,18.72
2022-12-27T19:58:10.314Z,18.83
2022-12-27T20:03:31.678Z,18.71
2022-12-27T20:06:12.368Z,18.80
2022-12-27T20:08:45.116Z,18.80
2022-12-27T20:11:12.759Z,18.80
2022-12-27T20:13:40.039Z,18.76
2022-12-27T20:18:51.035Z,19.01
2022-12-27T20:21:17.416Z,18.86
2022-12-27T20:23:43.805Z,18.90
2022-12-27T20:26:10.156Z,18.90
2022-12-27T20:28:36.563Z,18.77
2022-12-27T20:33:47.048Z,18.81
2022-12-27T20:36:13.433Z,18.73
2022-12-27T20:38:39.829Z,18.82
2022-12-27T20:41:08.132Z,18.86
2022-12-27T20:43:35.359Z,18.92
2022-12-27T20:48:55.797Z,18.99
2022-12-27T20:51:23.172Z,18.90
2022-12-27T20:53:50.503Z,18.83
2022-12-27T20:56:16.909Z,18.91
2022-12-27T20:58:44.150Z,18.89
2022-12-27T21:03:55.210Z,18.98
2022-12-27T21:06:22.440Z,18.89
2022-12-27T21:08:55.952Z,18.82
2022-12-27T21:11:23.442Z,18.92
2022-12-27T21:13:49.950Z,18.90
2022-12-27T21:19:00.632Z,18.81
2022-12-27T21:21:28.800Z,18.87
2022-12-27T21:23:55.383Z,18.91
2022-12-27T21:26:22.648Z,18.93
2022-12-27T21:28:48.971Z,19.00
2022-12-27T21:34:10.813Z,18.99
2022-12-27T21:36:37.137Z,18.97
2022-12-27T21:39:06.308Z,18.98
2022-12-27T21:41:32.796Z,18.89
2022-12-27T21:43:59.147Z,18.93
2022-12-27T21:49:10.425Z,18.89
2022-12-27T21:51:36.748Z,18.90
2022-12-27T21:54:03.252Z,18.92
2022-12-27T21:56:29.587Z,18.88
2022-12-27T21:58:58.689Z,18.80
2022-12-27T22:01:25.154Z,18.94
2022-12-27T22:03:51.707Z,18.79
2022-12-27T22:06:18.144Z,18.80
2022-12-27T22:08:44.499Z,18.82
2022-12-27T22:11:10.923Z,18.83
2022-12-27T22:13:37.288Z,18.76
2022-12-27T22:16:03.745Z,18.73
2022-12-27T22:18:30.165Z,18.76
2022-12-27T22:20:56.516Z,18.73
2022-12-27T22:23:23.031Z,18.77
2022-12-27T22:25:49.374Z,18.78
2022-12-27T22:28:17.670Z,18.78
2022-12-27T22:30:44.218Z,18.80
2022-12-27T22:33:11.490Z,18.80
2022-12-27T22:35:39.773Z,18.74
2022-12-27T22:38:06.171Z,18.74
2022-12-27T22:40:45.771Z,18.71
2022-12-27T22:43:13.164Z,18.72
2022-12-27T22:45:39.509Z,18.75
2022-12-27T22:48:05.859Z,18.74
2022-12-27T22:50:32.204Z,18.74
2022-12-27T22:52:58.538Z,18.72
2022-12-27T22:55:24.871Z,18.69
2022-12-27T22:57:51.213Z,18.70
2022-12-27T23:00:17.552Z,18.71
2022-12-27T23:02:44.183Z,18.74
2022-12-27T23:05:10.720Z,18.78
2022-12-27T23:08:04.989Z,18.76
2022-12-27T23:10:24.423Z,18.72
2022-12-27T23:12:50.784Z,18.74
2022-12-27T23:15:17.156Z,18.71
2022-12-27T23:17:43.513Z,18.74
2022-12-27T23:20:09.858Z,18.74
2022-12-27T23:22:36.277Z,18.72
2022-12-27T23:25:02.621Z,18.71
2022-12-27T23:27:28.977Z,18.71
2022-12-27T23:29:55.325Z,18.71
2022-12-27T23:32:21.655Z,18.71
2022-12-27T23:37:41.862Z,18.74
2022-12-27T23:40:08.268Z,18.73
2022-12-27T23:42:34.609Z,18.76
2022-12-27T23:45:00.966Z,18.77
2022-12-27T23:47:27.310Z,18.77
2022-12-27T23:52:38.034Z,18.72
2022-12-27T23:55:04.398Z,18.72
2022-12-27T23:57:30.743Z,18.70
2022-12-27T23:59:57.078Z,18.66
